Time;durP1;ratioP1;P1;durP2;ratioP2;P2;SDS_P1;SDS_P2;PMS_P1;PMS_P2;Temp;Humidity;BMP_temperature;BMP_pressure;BME280_temperature;BME280_humidity;BME280_pressure;Samples;Min_cycle;Max_cycle;Signal;HPM_P1;HPM_P2
2023/10/05 00:03:43;;;;;;;6.60;1.98;;;16.20;99.60;;;;;;5058067;28;20118;-83
2023/10/05 00:06:16;;;;;;;6.95;1.90;;;16.20;99.60;;;;;;5040111;28;20025;-84
2023/10/05 00:08:48;;;;;;;6.28;2.03;;;16.20;99.60;;;;;;5065669;28;20044;-84
2023/10/05 00:11:30;;;;;;;3.78;2.05;;;16.20;99.60;;;;;;5080657;28;20021;-84
2023/10/05 00:14:02;;;;;;;4.03;1.73;;;16.20;99.70;;;;;;5060286;28;20039;-83
2023/10/05 00:16:38;;;;;;;4.13;1.67;;;16.20;99.70;;;;;;5093748;28;20361;-85
2023/10/05 00:19:11;;;;;;;5.88;2.25;;;16.20;99.70;;;;;;5059909;28;20051;-84
2023/10/05 00:21:51;;;;;;;5.75;1.67;;;16.20;99.70;;;;;;5039511;28;20063;-84
2023/10/05 00:24:37;;;;;;;6.13;2.28;;;16.30;99.80;;;;;;5074296;28;20016;-83
2023/10/05 00:27:08;;;;;;;3.97;1.77;;;16.20;99.70;;;;;;5073447;28;20052;-83
2023/10/05 00:29:41;;;;;;;4.55;1.95;;;16.20;99.70;;;;;;5073201;28;20116;-83
2023/10/05 00:32:13;;;;;;;5.68;2.13;;;16.20;99.80;;;;;;5059210;28;20060;-83
2023/10/05 00:34:40;;;;;;;3.85;1.92;;;16.20;99.80;;;;;;5090871;28;20035;-84
2023/10/05 00:37:06;;;;;;;5.38;2.25;;;16.20;99.90;;;;;;5039056;28;20093;-83
2023/10/05 00:39:32;;;;;;;5.45;2.17;;;16.30;99.90;;;;;;5061741;28;20527;-84
2023/10/05 00:44:34;;;;;;;4.72;1.70;;;16.30;99.90;;;;;;5074816;28;20051;-83
2023/10/05 00:47:01;;;;;;;5.35;2.55;;;16.20;99.90;;;;;;5059386;28;20478;-83
2023/10/05 00:49:41;;;;;;;4.30;2.10;;;16.30;99.90;;;;;;5056239;28;20119;-83
2023/10/05 00:52:14;;;;;;;3.88;1.75;;;16.30;99.90;;;;;;5066211;28;20488;-83
2023/10/05 00:54:44;;;;;;;6.88;2.30;;;16.30;99.90;;;;;;5069324;28;20033;-86
2023/10/05 00:57:14;;;;;;;6.95;2.05;;;16.30;99.90;;;;;;5077470;28;20028;-83
2023/10/05 00:59:54;;;;;;;5.53;2.17;;;16.30;99.90;;;;;;5073614;28;20459;-83
2023/10/05 01:02:22;;;;;;;4.85;2.00;;;16.30;99.90;;;;;;5055771;28;20017;-84
2023/10/05 01:05:00;;;;;;;6.45;1.95;;;16.30;99.90;;;;;;5055452;28;20532;-83
2023/10/05 01:07:43;;;;;;;6.00;2.10;;;16.30;99.90;;;;;;5054961;28;20029;-83
2023/10/05 01:10:40;;;;;;;3.45;1.60;;;16.30;99.90;;;;;;5072805;28;20032;-83
2023/10/05 01:13:31;;;;;;;5.28;1.90;;;16.30;99.90;;;;;;5064874;28;20028;-84
2023/10/05 01:15:57;;;;;;;5.35;1.95;;;16.30;99.90;;;;;;5058188;28;20078;-84
2023/10/05 01:18:25;;;;;;;4.82;1.65;;;16.40;99.90;;;;;;5059057;28;20024;-84
2023/10/05 01:20:57;;;;;;;5.70;2.10;;;16.40;99.90;;;;;;5061762;28;20066;-83
2023/10/05 01:23:38;;;;;;;7.82;2.35;;;16.40;99.90;;;;;;5046274;28;20021;-83
2023/10/05 01:26:10;;;;;;;5.13;1.75;;;16.30;99.90;;;;;;5046556;28;20442;-83
2023/10/05 01:28:44;;;;;;;7.15;2.53;;;16.30;99.90;;;;;;5092359;28;20028;-83
2023/10/05 01:31:16;;;;;;;5.47;1.77;;;16.30;99.90;;;;;;5065647;28;20372;-84
2023/10/05 01:33:43;;;;;;;3.47;1.85;;;16.40;99.90;;;;;;5062776;28;20048;-83
2023/10/05 01:36:11;;;;;;;6.10;2.10;;;16.40;99.90;;;;;;5096116;28;20036;-83
2023/10/05 01:38:38;;;;;;;4.60;1.90;;;16.30;99.90;;;;;;5061365;28;20040;-83
2023/10/05 01:41:09;;;;;;;7.47;2.45;;;16.30;99.90;;;;;;5095807;28;20032;-83
2023/10/05 01:43:35;;;;;;;5.97;2.20;;;16.30;99.90;;;;;;5051481;28;20032;-83
2023/10/05 01:46:02;;;;;;;3.47;1.70;;;16.20;99.90;;;;;;5064942;28;20027;-83
2023/10/05 01:48:30;;;;;;;4.97;1.95;;;16.20;99.90;;;;;;5077748;28;20016;-83
2023/10/05 01:51:09;;;;;;;5.57;2.33;;;16.20;99.90;;;;;;5078173;28;20077;-83
2023/10/05 01:53:35;;;;;;;3.55;1.88;;;16.20;99.90;;;;;;5042863;28;20020;-83
2023/10/05 01:56:01;;;;;;;4.88;2.00;;;16.20;99.90;;;;;;5024493;28;20377;-83
2023/10/05 01:58:38;;;;;;;5.55;2.10;;;16.20;99.90;;;;;;5066131;28;20023;-83
2023/10/05 02:01:06;;;;;;;3.97;1.67;;;16.10;99.90;;;;;;5066403;28;20035;-83
2023/10/05 02:03:33;;;;;;;4.97;1.90;;;16.10;99.90;;;;;;5027109;28;20384;-82
2023/10/05 02:06:03;;;;;;;4.00;1.83;;;16.10;99.90;;;;;;5057803;28;20020;-83
2023/10/05 02:08:33;;;;;;;7.63;2.30;;;16.10;99.90;;;;;;5075064;28;20413;-83
2023/10/05 02:10:59;;;;;;;5.93;2.25;;;16.00;99.90;;;;;;5095528;28;20051;-83
2023/10/05 02:13:29;;;;;;;5.47;2.00;;;16.00;99.90;;;;;;5078063;28;20476;-83
2023/10/05 02:15:55;;;;;;;6.63;2.30;;;16.00;99.90;;;;;;5044756;28;20098;-83
2023/10/05 02:18:24;;;;;;;5.82;2.10;;;16.00;99.90;;;;;;5074978;28;20036;-83
2023/10/05 02:23:44;;;;;;;3.63;1.83;;;16.00;99.90;;;;;;5057158;28;20429;-83
2023/10/05 02:28:58;;;;;;;4.15;2.22;;;15.90;99.90;;;;;;5096460;28;20100;-83
2023/10/05 02:31:28;;;;;;;5.57;2.20;;;15.90;99.90;;;;;;5062912;28;20028;-83
2023/10/05 02:33:55;;;;;;;6.45;2.15;;;15.90;99.90;;;;;;5089925;28;20131;-84
2023/10/05 02:36:21;;;;;;;5.18;1.90;;;15.90;99.90;;;;;;5077017;28;20024;-82
2023/10/05 02:39:08;;;;;;;4.05;2.10;;;15.90;99.90;;;;;;5117040;28;20025;-83
2023/10/05 02:41:40;;;;;;;6.03;2.22;;;15.90;99.90;;;;;;5071664;28;20028;-83
2023/10/05 02:46:48;;;;;;;6.82;2.53;;;15.80;99.90;;;;;;5074956;28;20043;-83
2023/10/05 02:49:22;;;;;;;5.63;2.33;;;15.80;99.90;;;;;;5059521;28;20114;-83
2023/10/05 02:51:52;;;;;;;5.97;2.15;;;15.80;99.90;;;;;;5095125;28;20023;-83
2023/10/05 02:54:24;;;;;;;6.35;2.22;;;15.80;99.90;;;;;;5063396;28;20086;-83
2023/10/05 02:56:53;;;;;;;5.82;2.17;;;15.80;99.90;;;;;;5056783;28;20056;-83
2023/10/05 02:59:21;;;;;;;5.47;2.22;;;15.80;99.90;;;;;;5047207;28;20033;-83
2023/10/05 03:01:48;;;;;;;4.45;2.00;;;15.80;99.90;;;;;;5056802;28;20021;-83
2023/10/05 03:06:40;;;;;;;4.97;2.13;;;15.80;99.90;;;;;;5073258;28;20044;-83
2023/10/05 03:09:07;;;;;;;4.28;2.38;;;15.70;99.90;;;;;;5062631;28;20388;-83
2023/10/05 03:11:41;;;;;;;7.05;2.67;;;15.70;99.90;;;;;;5094334;28;20046;-83
2023/10/05 03:14:11;;;;;;;3.85;2.20;;;15.70;99.90;;;;;;5062640;28;20431;-83
2023/10/05 03:16:47;;;;;;;7.80;2.80;;;15.70;99.90;;;;;;5066676;28;20574;-83
2023/10/05 03:19:20;;;;;;;8.50;2.65;;;15.70;99.90;;;;;;5074575;28;20024;-83
2023/10/05 03:21:49;;;;;;;8.38;2.67;;;15.70;99.90;;;;;;5056065;28;20044;-83
2023/10/05 03:24:14;;;;;;;7.55;3.25;;;15.70;99.90;;;;;;5027542;28;20028;-84
2023/10/05 03:26:43;;;;;;;6.43;2.28;;;15.70;99.90;;;;;;5039872;28;20032;-83
2023/10/05 03:29:11;;;;;;;4.90;2.40;;;15.70;99.90;;;;;;5068807;28;20122;-83
2023/10/05 03:31:43;;;;;;;5.85;2.78;;;15.70;99.90;;;;;;5059605;28;20369;-83
2023/10/05 03:34:12;;;;;;;5.38;2.80;;;15.70;99.90;;;;;;5059262;28;20052;-83
2023/10/05 03:36:37;;;;;;;5.93;2.33;;;15.70;99.90;;;;;;5076226;28;20025;-83
2023/10/05 03:39:07;;;;;;;5.72;2.38;;;15.70;99.90;;;;;;5073068;28;20039;-83
2023/10/05 03:41:34;;;;;;;7.40;2.95;;;15.70;99.90;;;;;;5080168;28;20016;-83
2023/10/05 03:44:02;;;;;;;6.07;2.50;;;15.70;99.90;;;;;;5063418;28;20052;-83
2023/10/05 03:46:28;;;;;;;5.65;2.40;;;15.70;99.90;;;;;;5040301;28;20031;-83
2023/10/05 03:49:01;;;;;;;6.03;2.72;;;15.70;99.90;;;;;;5075837;28;20042;-83
2023/10/05 03:51:30;;;;;;;4.93;2.67;;;15.70;99.90;;;;;;5057769;28;20357;-83
2023/10/05 03:53:56;;;;;;;6.03;2.28;;;15.70;99.90;;;;;;5044595;28;20025;-84
2023/10/05 03:56:23;;;;;;;5.13;2.72;;;15.70;99.90;;;;;;5071141;28;20032;-83
2023/10/05 03:58:53;;;;;;;5.85;2.65;;;15.70;99.90;;;;;;5058862;28;20031;-83
2023/10/05 04:01:19;;;;;;;5.72;2.40;;;15.70;99.90;;;;;;5089262;28;20028;-83
2023/10/05 04:03:49;;;;;;;5.47;2.47;;;15.70;99.90;;;;;;5056176;28;20056;-83
2023/10/05 04:06:24;;;;;;;4.70;2.40;;;15.70;99.90;;;;;;5057196;28;20065;-83
2023/10/05 04:09:00;;;;;;;5.50;2.30;;;15.70;99.90;;;;;;5058807;28;20028;-83
2023/10/05 04:11:28;;;;;;;6.38;2.38;;;15.70;99.90;;;;;;5092194;28;20036;-82
2023/10/05 04:13:55;;;;;;;5.75;2.67;;;15.70;99.90;;;;;;5078617;28;20024;-82
2023/10/05 04:16:26;;;;;;;6.57;2.75;;;15.70;99.90;;;;;;5079687;28;20024;-84
2023/10/05 04:18:52;;;;;;;7.47;3.08;;;15.70;99.90;;;;;;5081321;28;20020;-82
2023/10/05 04:21:18;;;;;;;7.15;2.58;;;15.70;99.90;;;;;;5082882;28;20052;-83
2023/10/05 04:23:50;;;;;;;5.28;2.70;;;15.60;99.90;;;;;;5082438;28;20036;-84
2023/10/05 04:26:20;;;;;;;6.97;2.80;;;15.70;99.90;;;;;;5072139;28;20024;-83
2023/10/05 04:28:54;;;;;;;5.57;2.67;;;15.60;99.90;;;;;;5088734;28;20104;-83
2023/10/05 04:31:27;;;;;;;7.07;2.70;;;15.60;99.90;;;;;;5046009;28;20132;-82
2023/10/05 04:33:54;;;;;;;6.90;2.75;;;15.70;99.90;;;;;;5049784;28;20147;-83
2023/10/05 04:36:24;;;;;;;5.53;3.03;;;15.60;99.90;;;;;;5062937;28;20050;-83
2023/10/05 04:38:53;;;;;;;6.20;2.63;;;15.60;99.90;;;;;;5063819;28;20016;-82
2023/10/05 04:41:28;;;;;;;4.57;2.63;;;15.60;99.90;;;;;;5041928;28;20039;-83
2023/10/05 04:43:57;;;;;;;6.57;2.75;;;15.50;99.90;;;;;;5065588;28;20020;-82
2023/10/05 04:46:24;;;;;;;7.95;3.45;;;15.60;99.90;;;;;;5061831;28;20170;-82
2023/10/05 04:49:07;;;;;;;7.43;2.90;;;15.50;99.90;;;;;;5065124;28;20020;-81
2023/10/05 04:51:36;;;;;;;5.82;2.63;;;15.50;99.90;;;;;;5070173;28;20454;-82
2023/10/05 04:54:01;;;;;;;5.25;2.45;;;15.50;99.90;;;;;;5067585;28;20067;-83
2023/10/05 05:07:06;;;;;;;5.85;2.53;;;15.50;99.90;;;;;;5061837;28;20045;-82
2023/10/05 05:09:35;;;;;;;5.10;2.70;;;15.50;99.90;;;;;;5079756;28;20052;-82
2023/10/05 05:12:16;;;;;;;5.70;2.53;;;15.50;99.90;;;;;;5083455;28;20037;-82
2023/10/05 05:14:44;;;;;;;6.10;3.08;;;15.50;99.90;;;;;;5066387;28;20434;-82
2023/10/05 05:17:13;;;;;;;5.18;2.20;;;15.50;99.90;;;;;;5059226;28;20621;-82
2023/10/05 05:19:39;;;;;;;6.88;2.45;;;15.50;99.90;;;;;;5082190;28;20381;-83
2023/10/05 05:22:06;;;;;;;7.40;2.65;;;15.40;99.90;;;;;;5057069;28;20020;-83
2023/10/05 05:24:33;;;;;;;5.43;2.88;;;15.40;99.90;;;;;;5079446;28;20028;-83
2023/10/05 05:27:04;;;;;;;6.63;3.30;;;15.40;99.90;;;;;;5060678;28;20029;-82
2023/10/05 05:29:36;;;;;;;5.63;2.88;;;15.40;99.90;;;;;;5066150;28;20042;-83
2023/10/05 05:32:10;;;;;;;6.30;3.45;;;15.40;99.90;;;;;;5053014;28;20035;-82
2023/10/05 05:34:42;;;;;;;7.30;3.13;;;15.40;99.90;;;;;;5034210;28;20051;-82
2023/10/05 05:37:13;;;;;;;5.50;2.60;;;15.40;99.90;;;;;;5067177;28;20025;-82
2023/10/05 05:39:39;;;;;;;10.90;2.92;;;15.40;99.90;;;;;;5048819;28;20028;-82
2023/10/05 05:42:14;;;;;;;9.23;3.08;;;15.40;99.90;;;;;;5047455;28;20020;-82
2023/10/05 05:44:40;;;;;;;6.03;2.92;;;15.40;99.90;;;;;;5069822;28;20028;-82
2023/10/05 05:47:10;;;;;;;7.45;2.75;;;15.40;99.90;;;;;;5049129;28;20039;-82
2023/10/05 05:49:45;;;;;;;8.38;2.92;;;15.30;99.90;;;;;;5074754;28;20051;-82
2023/10/05 05:52:13;;;;;;;6.78;2.90;;;15.40;99.90;;;;;;5074343;28;20064;-82
2023/10/05 05:54:46;;;;;;;5.25;2.75;;;15.30;99.90;;;;;;5063059;28;20053;-82
2023/10/05 05:57:13;;;;;;;6.30;2.83;;;15.30;99.90;;;;;;5062267;28;20024;-82
2023/10/05 05:59:39;;;;;;;6.82;2.70;;;15.30;99.90;;;;;;5079118;28;20009;-82
2023/10/05 06:02:07;;;;;;;5.63;2.67;;;15.30;99.90;;;;;;5079662;28;20005;-81
2023/10/05 06:04:38;;;;;;;6.72;3.08;;;15.30;99.90;;;;;;5078993;28;20013;-82
2023/10/05 06:07:11;;;;;;;7.05;3.08;;;15.30;99.90;;;;;;5079366;28;20053;-82
2023/10/05 06:09:39;;;;;;;9.32;3.47;;;15.30;99.90;;;;;;5051802;28;20037;-82
2023/10/05 06:12:05;;;;;;;5.80;2.88;;;15.40;99.90;;;;;;5038162;28;20025;-82
2023/10/05 06:14:34;;;;;;;6.03;2.78;;;15.40;99.90;;;;;;5044672;28;20028;-82
2023/10/05 06:17:00;;;;;;;4.53;2.70;;;15.40;99.90;;;;;;5038226;28;20422;-82
2023/10/05 06:19:29;;;;;;;7.50;2.63;;;15.40;99.90;;;;;;5020526;28;20083;-82
2023/10/05 06:21:55;;;;;;;7.20;3.10;;;15.40;99.90;;;;;;5070353;28;20112;-82
2023/10/05 06:24:20;;;;;;;8.00;2.90;;;15.40;99.90;;;;;;5074924;28;20162;-82
2023/10/05 06:26:46;;;;;;;6.22;2.50;;;15.40;99.90;;;;;;5071857;28;20458;-82
2023/10/05 06:29:13;;;;;;;7.68;3.20;;;15.40;99.90;;;;;;5025939;28;20044;-82
2023/10/05 06:31:40;;;;;;;5.43;3.03;;;15.40;99.90;;;;;;5054740;28;20029;-82
2023/10/05 06:34:12;;;;;;;9.75;3.58;;;15.40;99.90;;;;;;5071329;28;20036;-82
2023/10/05 06:36:39;;;;;;;7.00;2.53;;;15.40;99.90;;;;;;5060934;28;20056;-82
2023/10/05 06:39:14;;;;;;;9.63;3.40;;;15.50;99.90;;;;;;5068356;28;20040;-82
2023/10/05 06:41:41;;;;;;;5.82;2.90;;;15.50;99.90;;;;;;5074173;28;20054;-81
2023/10/05 06:44:11;;;;;;;8.10;3.35;;;15.50;99.90;;;;;;5063493;28;20016;-82
2023/10/05 06:46:40;;;;;;;6.25;3.20;;;15.50;99.90;;;;;;5086868;28;20024;-82
2023/10/05 06:49:06;;;;;;;4.95;2.78;;;15.50;99.90;;;;;;5074573;28;20464;-82
2023/10/05 06:51:32;;;;;;;6.15;3.25;;;15.50;99.90;;;;;;5047923;28;20483;-83
2023/10/05 06:53:58;;;;;;;6.68;2.60;;;15.50;99.90;;;;;;5076586;28;20028;-82
2023/10/05 06:56:26;;;;;;;8.63;3.10;;;15.50;99.90;;;;;;5049129;28;20077;-83
2023/10/05 06:58:52;;;;;;;4.75;2.83;;;15.50;99.90;;;;;;5040165;28;20029;-82
2023/10/05 07:01:20;;;;;;;8.73;3.35;;;15.50;99.90;;;;;;5052048;28;20532;-82
2023/10/05 07:03:52;;;;;;;6.70;3.17;;;15.60;99.90;;;;;;5056180;28;20024;-82
2023/10/05 07:06:20;;;;;;;8.32;3.15;;;15.60;99.90;;;;;;5056375;28;20055;-82
2023/10/05 07:08:46;;;;;;;5.97;2.67;;;15.60;99.90;;;;;;5052126;28;20097;-82
2023/10/05 07:11:12;;;;;;;7.43;2.88;;;15.60;99.90;;;;;;5039713;28;20119;-82
2023/10/05 07:13:37;;;;;;;5.68;3.20;;;15.60;99.90;;;;;;5050225;28;20119;-82
2023/10/05 07:16:05;;;;;;;6.88;3.20;;;15.60;99.90;;;;;;5059494;28;20099;-82
2023/10/05 07:18:31;;;;;;;8.90;3.88;;;15.70;99.90;;;;;;5072792;28;20135;-83
2023/10/05 07:20:57;;;;;;;8.25;3.10;;;15.70;99.90;;;;;;5060295;28;20100;-82
2023/10/05 07:23:23;;;;;;;5.57;2.75;;;15.70;99.90;;;;;;5039538;28;20499;-82
2023/10/05 07:25:49;;;;;;;7.40;3.25;;;15.70;99.90;;;;;;5075270;28;20111;-82
2023/10/05 07:28:15;;;;;;;5.88;2.90;;;15.70;99.90;;;;;;5092795;28;20020;-82
2023/10/05 07:30:42;;;;;;;6.45;3.20;;;15.70;99.90;;;;;;5078689;28;20040;-82
2023/10/05 07:33:08;;;;;;;5.93;2.33;;;15.80;99.90;;;;;;5039390;28;20377;-82
2023/10/05 07:35:34;;;;;;;6.95;2.83;;;15.80;99.90;;;;;;5064697;28;20058;-82
2023/10/05 07:38:00;;;;;;;5.18;2.38;;;15.90;99.90;;;;;;5076618;28;20024;-82
2023/10/05 07:40:25;;;;;;;6.40;2.92;;;15.90;99.90;;;;;;5094337;28;20452;-82
2023/10/05 07:42:51;;;;;;;6.82;3.10;;;15.90;99.90;;;;;;5096231;28;20038;-81
2023/10/05 07:45:17;;;;;;;8.40;3.30;;;15.90;99.90;;;;;;5099241;28;20016;-82
2023/10/05 07:47:46;;;;;;;6.28;2.67;;;16.00;99.90;;;;;;5064550;28;20025;-82
2023/10/05 07:50:15;;;;;;;7.43;2.92;;;16.00;99.90;;;;;;5073364;28;20030;-81
2023/10/05 07:52:48;;;;;;;5.45;2.78;;;16.10;99.90;;;;;;5088696;28;20058;-82
2023/10/05 07:55:13;;;;;;;5.18;2.40;;;16.10;99.90;;;;;;5056261;28;20028;-82
2023/10/05 07:57:39;;;;;;;4.95;2.50;;;16.20;99.90;;;;;;5027786;28;20028;-82
2023/10/05 08:00:06;;;;;;;6.88;2.95;;;16.20;99.90;;;;;;5058977;28;20043;-82
2023/10/05 08:02:32;;;;;;;6.60;2.80;;;16.20;99.90;;;;;;5075587;28;20494;-82
2023/10/05 08:04:58;;;;;;;7.22;2.72;;;16.20;99.90;;;;;;5075862;28;20020;-82
2023/10/05 08:07:24;;;;;;;7.55;2.58;;;16.30;99.90;;;;;;5075172;28;20020;-83
2023/10/05 08:09:49;;;;;;;8.70;3.20;;;16.30;99.90;;;;;;5033811;28;20121;-82
2023/10/05 08:12:15;;;;;;;6.03;2.95;;;16.40;99.90;;;;;;5045046;28;20468;-82
2023/10/05 08:14:41;;;;;;;7.20;2.92;;;16.40;99.90;;;;;;5038354;28;20037;-82
2023/10/05 08:17:06;;;;;;;7.13;2.78;;;16.40;99.90;;;;;;5064072;28;20025;-82
2023/10/05 08:19:32;;;;;;;4.03;2.58;;;16.40;99.90;;;;;;5058782;28;20024;-82
2023/10/05 08:21:58;;;;;;;6.38;2.72;;;16.50;99.90;;;;;;5061179;28;20365;-82
2023/10/05 08:24:24;;;;;;;5.63;2.80;;;16.50;99.90;;;;;;5042240;28;20032;-82
2023/10/05 08:26:53;;;;;;;5.93;2.70;;;16.60;99.90;;;;;;5059715;28;20456;-82
2023/10/05 08:29:22;;;;;;;9.68;3.38;;;16.60;99.90;;;;;;5085877;28;20032;-82
2023/10/05 08:31:51;;;;;;;6.47;2.88;;;16.70;99.90;;;;;;5059384;28;20021;-82
2023/10/05 08:34:20;;;;;;;4.80;2.28;;;16.70;99.90;;;;;;5090189;28;20044;-82
2023/10/05 08:36:53;;;;;;;6.68;2.70;;;16.70;99.90;;;;;;5063148;28;20529;-82
2023/10/05 08:39:25;;;;;;;6.45;2.50;;;16.80;99.90;;;;;;5043612;28;20029;-82
2023/10/05 08:41:55;;;;;;;6.45;3.30;;;16.80;99.90;;;;;;5078133;28;20058;-83
2023/10/05 08:44:30;;;;;;;8.05;2.78;;;16.90;99.90;;;;;;5063884;28;20036;-82
2023/10/05 08:47:00;;;;;;;6.03;3.00;;;16.90;99.90;;;;;;5067332;28;20025;-82
2023/10/05 08:49:27;;;;;;;5.53;2.75;;;16.90;99.90;;;;;;5043356;28;20607;-83
2023/10/05 08:51:53;;;;;;;8.00;2.83;;;17.00;99.90;;;;;;5078667;28;20109;-82
2023/10/05 08:54:27;;;;;;;7.40;2.63;;;17.00;99.90;;;;;;5073799;28;20069;-82
2023/10/05 08:56:57;;;;;;;5.05;2.60;;;17.10;99.90;;;;;;5058587;28;20024;-82
2023/10/05 08:59:26;;;;;;;7.07;2.45;;;17.10;99.90;;;;;;5043059;28;20035;-83
2023/10/05 09:01:53;;;;;;;4.78;2.47;;;17.20;99.90;;;;;;5083164;28;20026;-83
2023/10/05 09:04:29;;;;;;;6.57;2.63;;;17.20;99.90;;;;;;5078952;28;20073;-83
2023/10/05 09:07:08;;;;;;;4.35;2.58;;;17.20;99.90;;;;;;5063576;28;20480;-83
2023/10/05 09:09:54;;;;;;;5.65;2.70;;;17.30;99.90;;;;;;5066098;28;20029;-82
2023/10/05 09:15:34;;;;;;;5.30;2.72;;;17.40;99.90;;;;;;5081152;28;20052;-82
2023/10/05 09:17:57;;;;;;;5.78;2.80;;;17.40;99.90;;;;;;5076126;28;20034;-83
2023/10/05 09:20:31;;;;;;;5.35;2.50;;;17.50;99.90;;;;;;5066976;28;20376;-83
2023/10/05 09:23:00;;;;;;;7.10;2.63;;;17.50;99.90;;;;;;5079126;28;20016;-82
2023/10/05 09:25:32;;;;;;;6.88;2.22;;;17.50;99.90;;;;;;5079387;28;20020;-82
2023/10/05 09:28:07;;;;;;;6.38;2.50;;;17.60;99.90;;;;;;5088423;28;20012;-83
2023/10/05 09:30:33;;;;;;;5.45;2.78;;;17.60;99.90;;;;;;5076026;28;20087;-82
2023/10/05 09:33:10;;;;;;;9.45;3.15;;;17.60;99.90;;;;;;5060615;28;20044;-83
2023/10/05 09:35:36;;;;;;;5.45;2.50;;;17.60;99.90;;;;;;5113635;28;20015;-82
2023/10/05 09:38:07;;;;;;;6.70;2.30;;;17.70;99.90;;;;;;5118009;28;20016;-82
2023/10/05 09:40:33;;;;;;;6.57;2.45;;;17.70;99.90;;;;;;5084466;28;20118;-81
2023/10/05 09:43:05;;;;;;;7.40;2.47;;;17.70;99.90;;;;;;5099712;28;20036;-82
2023/10/05 09:45:31;;;;;;;4.45;2.20;;;17.70;99.90;;;;;;5075600;28;20028;-82
2023/10/05 09:48:02;;;;;;;7.22;2.97;;;17.70;99.90;;;;;;5062167;28;20017;-82
2023/10/05 09:50:30;;;;;;;5.47;2.40;;;17.80;99.90;;;;;;5025763;28;20529;-82
2023/10/05 09:52:59;;;;;;;4.72;2.00;;;17.80;99.90;;;;;;5094152;28;20020;-82
2023/10/05 09:55:25;;;;;;;6.25;2.65;;;17.80;99.90;;;;;;5061562;28;20143;-82
2023/10/05 09:57:51;;;;;;;4.30;2.33;;;17.80;99.90;;;;;;5086209;28;20512;-83
2023/10/05 10:03:18;;;;;;;5.90;2.55;;;17.80;99.90;;;;;;5060987;28;20040;-82
2023/10/05 10:06:12;;;;;;;8.60;2.80;;;17.90;99.90;;;;;;5071332;28;20028;-82
2023/10/05 10:09:26;;;;;;;5.55;2.05;;;17.90;99.90;;;;;;5072348;28;20032;-83
2023/10/05 10:11:32;;;;;;;6.85;2.33;;;17.90;99.90;;;;;;5087034;28;20483;-82
2023/10/05 10:14:03;;;;;;;6.18;2.47;;;17.90;99.90;;;;;;5095280;28;20039;-83
2023/10/05 10:16:33;;;;;;;8.13;2.60;;;17.90;99.90;;;;;;5068045;28;20044;-82
2023/10/05 10:19:06;;;;;;;5.10;1.67;;;18.00;99.90;;;;;;5092164;28;20103;-83
2023/10/05 10:21:41;;;;;;;4.82;1.80;;;18.00;99.90;;;;;;5068001;28;20029;-82
2023/10/05 10:24:11;;;;;;;4.70;2.05;;;18.00;99.90;;;;;;5057054;28;20077;-82
2023/10/05 10:26:53;;;;;;;3.88;1.80;;;18.10;99.90;;;;;;5075098;28;20040;-82
2023/10/05 10:29:22;;;;;;;6.57;2.33;;;18.10;99.90;;;;;;5071635;28;20383;-82
2023/10/05 10:32:18;;;;;;;5.57;2.45;;;18.10;99.90;;;;;;5061034;28;20041;-82
2023/10/05 10:34:50;;;;;;;8.10;2.70;;;18.10;99.90;;;;;;5086508;28;20059;-82
2023/10/05 10:37:42;;;;;;;4.30;1.90;;;18.20;99.90;;;;;;5046353;28;20048;-82
2023/10/05 10:45:41;;;;;;;6.05;2.30;;;18.30;99.90;;;;;;5057641;28;20037;-82
2023/10/05 10:48:20;;;;;;;4.85;2.30;;;18.30;99.80;;;;;;5071898;28;20028;-82
2023/10/05 10:50:51;;;;;;;6.28;2.20;;;18.30;99.80;;;;;;5094890;28;20032;-82
2023/10/05 10:53:17;;;;;;;5.88;2.50;;;18.30;99.80;;;;;;5046038;28;20031;-82
2023/10/05 10:55:58;;;;;;;6.13;2.40;;;18.30;99.80;;;;;;5060168;28;20025;-82
2023/10/05 10:58:25;;;;;;;5.82;2.15;;;18.40;99.80;;;;;;5076593;28;20054;-82
2023/10/05 11:00:56;;;;;;;5.45;2.40;;;18.40;99.80;;;;;;5076544;28;20058;-82
2023/10/05 11:03:36;;;;;;;8.75;2.00;;;18.50;99.80;;;;;;5077444;28;20066;-82
2023/10/05 11:06:04;;;;;;;3.35;2.00;;;18.50;99.80;;;;;;5077183;28;20024;-82
2023/10/05 11:08:40;;;;;;;6.43;2.47;;;18.50;99.80;;;;;;5091425;28;20016;-82
2023/10/05 11:11:09;;;;;;;4.57;2.17;;;18.60;99.80;;;;;;5076099;28;20028;-82
2023/10/05 11:13:43;;;;;;;6.75;2.55;;;18.60;99.60;;;;;;5056846;28;20024;-82
2023/10/05 11:16:09;;;;;;;5.60;2.13;;;18.60;99.70;;;;;;5093495;28;20498;-82
2023/10/05 11:18:39;;;;;;;6.07;2.67;;;18.70;99.70;;;;;;5098471;28;20016;-82
2023/10/05 11:21:17;;;;;;;4.60;1.98;;;18.70;99.70;;;;;;5081929;28;20020;-82
2023/10/05 11:23:57;;;;;;;7.80;2.70;;;18.80;99.60;;;;;;5082881;28;20028;-81
2023/10/05 11:26:33;;;;;;;4.93;2.00;;;18.90;99.60;;;;;;5097854;28;20099;-82
2023/10/05 11:29:07;;;;;;;7.78;2.38;;;18.90;99.50;;;;;;5082315;28;20020;-83
2023/10/05 11:31:34;;;;;;;6.32;2.15;;;18.90;99.50;;;;;;5111511;28;20020;-81
2023/10/05 11:34:10;;;;;;;8.20;2.53;;;18.90;99.40;;;;;;5085629;28;20519;-82
2023/10/05 11:36:39;;;;;;;5.70;2.35;;;19.00;99.40;;;;;;5049832;28;20025;-82
2023/10/05 11:39:08;;;;;;;5.07;2.00;;;19.00;99.40;;;;;;5080420;28;20036;-82
2023/10/05 11:41:34;;;;;;;7.38;2.25;;;19.00;99.30;;;;;;5055731;28;20020;-82
2023/10/05 11:44:00;;;;;;;5.85;2.47;;;19.00;99.30;;;;;;5073714;28;20040;-81
2023/10/05 11:46:43;;;;;;;5.07;2.30;;;19.00;99.20;;;;;;5066797;28;20399;-82
2023/10/05 11:49:10;;;;;;;7.47;2.65;;;19.10;99.10;;;;;;5075751;28;20036;-82
2023/10/05 11:51:42;;;;;;;7.55;2.20;;;19.10;99.10;;;;;;5074810;28;20020;-83
2023/10/05 11:54:12;;;;;;;5.47;2.33;;;19.10;99.20;;;;;;5056360;28;20020;-82
2023/10/05 11:56:40;;;;;;;4.00;1.98;;;19.10;99.20;;;;;;5070335;28;20127;-82
2023/10/05 11:59:07;;;;;;;4.65;2.40;;;19.20;99.20;;;;;;5059411;28;20028;-82
2023/10/05 12:01:33;;;;;;;5.68;2.35;;;19.20;99.10;;;;;;5055474;28;20029;-82
2023/10/05 12:03:59;;;;;;;4.57;2.40;;;19.20;99.00;;;;;;5055737;28;20031;-82
2023/10/05 12:06:28;;;;;;;6.95;2.88;;;19.20;99.00;;;;;;5069994;28;20028;-82
2023/10/05 12:09:00;;;;;;;5.88;2.30;;;19.20;98.90;;;;;;5055000;28;20036;-82
2023/10/05 12:11:26;;;;;;;5.05;2.33;;;19.20;98.80;;;;;;5075337;28;20026;-82
2023/10/05 12:13:58;;;;;;;5.28;2.10;;;19.20;98.80;;;;;;5065641;28;20376;-82
2023/10/05 12:16:32;;;;;;;5.78;2.15;;;19.20;98.80;;;;;;5054827;28;20059;-82
2023/10/05 12:19:13;;;;;;;6.70;2.53;;;19.30;98.80;;;;;;5056224;28;20033;-82
2023/10/05 12:21:45;;;;;;;7.70;2.60;;;19.30;98.80;;;;;;5087634;28;20025;-82
2023/10/05 12:24:11;;;;;;;5.95;2.38;;;19.30;98.60;;;;;;5075076;28;20036;-82
2023/10/05 12:26:42;;;;;;;4.40;1.95;;;19.40;98.60;;;;;;5061504;28;20028;-82
2023/10/05 12:29:18;;;;;;;5.28;2.08;;;19.30;98.60;;;;;;5054876;28;20020;-81
2023/10/05 12:31:46;;;;;;;4.97;2.00;;;19.40;98.70;;;;;;5055845;28;20027;-82
2023/10/05 12:34:16;;;;;;;4.35;2.28;;;19.40;98.70;;;;;;5071229;28;20493;-82
2023/10/05 12:36:49;;;;;;;7.40;2.00;;;19.40;98.60;;;;;;5059362;28;20028;-82
2023/10/05 12:39:26;;;;;;;6.57;2.10;;;19.40;98.60;;;;;;5049628;28;20068;-82
2023/10/05 12:41:54;;;;;;;4.30;2.42;;;19.40;98.40;;;;;;5037228;28;20025;-82
2023/10/05 12:44:19;;;;;;;7.57;2.55;;;19.40;98.40;;;;;;5052772;28;20033;-82
2023/10/05 12:46:47;;;;;;;5.60;2.20;;;19.30;98.40;;;;;;5051885;28;20392;-82
2023/10/05 12:49:14;;;;;;;7.22;3.10;;;19.30;98.30;;;;;;5052774;28;20037;-82
2023/10/05 12:51:45;;;;;;;3.58;1.55;;;19.30;98.30;;;;;;5037471;28;20029;-82
2023/10/05 12:54:28;;;;;;;5.20;2.08;;;19.30;98.30;;;;;;5071559;28;20436;-82
2023/10/05 12:56:55;;;;;;;8.90;2.10;;;19.30;98.30;;;;;;5057358;28;20021;-82
2023/10/05 12:59:21;;;;;;;6.45;2.00;;;19.20;98.30;;;;;;5059579;28;20208;-82
2023/10/05 13:01:47;;;;;;;5.05;2.00;;;19.30;98.40;;;;;;5053038;28;20384;-82
2023/10/05 13:04:14;;;;;;;5.78;2.28;;;19.30;98.40;;;;;;5071896;28;20449;-82
2023/10/05 13:06:41;;;;;;;7.10;2.05;;;19.30;98.50;;;;;;5056320;28;20020;-82
2023/10/05 13:09:13;;;;;;;6.70;2.15;;;19.30;98.50;;;;;;5064618;28;20059;-82
2023/10/05 13:11:41;;;;;;;5.20;2.00;;;19.30;98.50;;;;;;5057422;28;20056;-82
2023/10/05 13:14:08;;;;;;;6.68;2.20;;;19.40;98.50;;;;;;5094923;28;20008;-83
2023/10/05 13:16:41;;;;;;;5.20;1.90;;;19.40;98.50;;;;;;5092823;28;20004;-81
2023/10/05 13:19:09;;;;;;;5.25;2.00;;;19.40;98.40;;;;;;5066304;28;20000;-82
2023/10/05 13:21:36;;;;;;;6.22;1.77;;;19.40;98.40;;;;;;5099115;28;20004;-81
2023/10/05 13:24:02;;;;;;;4.22;1.92;;;19.40;98.40;;;;;;5093551;28;20032;-82
2023/10/05 13:26:29;;;;;;;6.43;2.05;;;19.40;98.40;;;;;;5076840;28;20456;-83
2023/10/05 13:28:59;;;;;;;6.15;2.30;;;19.40;98.30;;;;;;5059102;28;20090;-82
2023/10/05 13:31:25;;;;;;;4.43;1.70;;;19.40;98.30;;;;;;5060277;28;20445;-82
2023/10/05 13:33:54;;;;;;;4.80;2.03;;;19.40;98.30;;;;;;5054650;28;20061;-82
2023/10/05 13:36:21;;;;;;;5.10;2.22;;;19.40;98.30;;;;;;5022584;28;20021;-83
2023/10/05 13:38:47;;;;;;;3.03;1.45;;;19.40;98.30;;;;;;5038630;28;20461;-82
2023/10/05 13:41:13;;;;;;;2.90;1.50;;;19.40;98.20;;;;;;5057599;28;20024;-82